sensor_id;sensor_type;location;lat;lon;timestamp;P1;durP1;ratioP1;P2;durP2;ratioP2
47715;SDS011;33476;50.984;3.538;2022-07-29T00:00:57;5.80;;;0.65;;
47715;SDS011;33476;50.984;3.538;2022-07-29T00:03:22;5.00;;;0.43;;
47715;SDS011;33476;50.984;3.538;2022-07-29T00:05:48;3.35;;;0.45;;
47715;SDS011;33476;50.984;3.538;2022-07-29T00:08:13;1.25;;;0.50;;
47715;SDS011;33476;50.984;3.538;2022-07-29T00:10:40;2.60;;;0.38;;
47715;SDS011;33476;50.984;3.538;2022-07-29T00:13:06;3.05;;;0.50;;
47715;SDS011;33476;50.984;3.538;2022-07-29T00:15:32;1.88;;;0.40;;
47715;SDS011;33476;50.984;3.538;2022-07-29T00:17:57;3.00;;;0.45;;
47715;SDS011;33476;50.984;3.538;2022-07-29T00:20:23;2.15;;;0.47;;
47715;SDS011;33476;50.984;3.538;2022-07-29T00:22:48;2.55;;;0.40;;
47715;SDS011;33476;50.984;3.538;2022-07-29T00:25:14;2.83;;;0.47;;
47715;SDS011;33476;50.984;3.538;2022-07-29T00:27:39;2.80;;;0.57;;
47715;SDS011;33476;50.984;3.538;2022-07-29T00:30:05;5.38;;;0.50;;
47715;SDS011;33476;50.984;3.538;2022-07-29T00:32:32;2.92;;;0.50;;
47715;SDS011;33476;50.984;3.538;2022-07-29T00:34:57;1.65;;;0.60;;
47715;SDS011;33476;50.984;3.538;2022-07-29T00:37:41;3.67;;;0.40;;
47715;SDS011;33476;50.984;3.538;2022-07-29T00:40:07;2.75;;;0.70;;
47715;SDS011;33476;50.984;3.538;2022-07-29T00:42:42;3.97;;;0.45;;
47715;SDS011;33476;50.984;3.538;2022-07-29T00:45:08;3.65;;;0.50;;
47715;SDS011;33476;50.984;3.538;2022-07-29T00:47:34;2.08;;;0.40;;
47715;SDS011;33476;50.984;3.538;2022-07-29T00:49:59;4.22;;;0.60;;
47715;SDS011;33476;50.984;3.538;2022-07-29T00:52:25;5.60;;;0.80;;
47715;SDS011;33476;50.984;3.538;2022-07-29T00:54:51;2.67;;;0.43;;
47715;SDS011;33476;50.984;3.538;2022-07-29T00:57:16;2.65;;;0.50;;
47715;SDS011;33476;50.984;3.538;2022-07-29T00:59:42;4.78;;;0.60;;
47715;SDS011;33476;50.984;3.538;2022-07-29T01:02:07;6.57;;;0.88;;
47715;SDS011;33476;50.984;3.538;2022-07-29T01:04:32;2.00;;;0.73;;
47715;SDS011;33476;50.984;3.538;2022-07-29T01:06:58;2.45;;;0.70;;
47715;SDS011;33476;50.984;3.538;2022-07-29T01:09:26;1.95;;;0.70;;
47715;SDS011;33476;50.984;3.538;2022-07-29T01:11:52;9.55;;;0.98;;
47715;SDS011;33476;50.984;3.538;2022-07-29T01:14:18;3.95;;;0.75;;
47715;SDS011;33476;50.984;3.538;2022-07-29T01:16:48;2.85;;;0.80;;
47715;SDS011;33476;50.984;3.538;2022-07-29T01:28:30;3.20;;;0.95;;
47715;SDS011;33476;50.984;3.538;2022-07-29T01:30:56;3.63;;;0.80;;
47715;SDS011;33476;50.984;3.538;2022-07-29T01:33:25;3.40;;;0.60;;
47715;SDS011;33476;50.984;3.538;2022-07-29T01:36:13;4.20;;;1.02;;
47715;SDS011;33476;50.984;3.538;2022-07-29T01:38:42;3.80;;;0.75;;
47715;SDS011;33476;50.984;3.538;2022-07-29T01:41:17;1.67;;;0.80;;
47715;SDS011;33476;50.984;3.538;2022-07-29T01:43:53;5.90;;;0.98;;
47715;SDS011;33476;50.984;3.538;2022-07-29T01:46:33;5.25;;;0.90;;
47715;SDS011;33476;50.984;3.538;2022-07-29T01:49:11;3.00;;;1.00;;
47715;SDS011;33476;50.984;3.538;2022-07-29T01:51:42;3.42;;;0.95;;
47715;SDS011;33476;50.984;3.538;2022-07-29T01:54:19;3.50;;;0.80;;
47715;SDS011;33476;50.984;3.538;2022-07-29T01:56:51;3.90;;;0.98;;
47715;SDS011;33476;50.984;3.538;2022-07-29T01:59:20;3.17;;;0.80;;
47715;SDS011;33476;50.984;3.538;2022-07-29T02:01:47;2.60;;;0.85;;
47715;SDS011;33476;50.984;3.538;2022-07-29T02:04:15;3.75;;;0.95;;
47715;SDS011;33476;50.984;3.538;2022-07-29T02:06:41;1.70;;;0.68;;
47715;SDS011;33476;50.984;3.538;2022-07-29T02:09:09;3.75;;;0.80;;
47715;SDS011;33476;50.984;3.538;2022-07-29T02:11:37;4.53;;;0.65;;
47715;SDS011;33476;50.984;3.538;2022-07-29T02:14:04;1.77;;;0.85;;
47715;SDS011;33476;50.984;3.538;2022-07-29T02:16:31;2.58;;;0.90;;
47715;SDS011;33476;50.984;3.538;2022-07-29T02:18:58;4.45;;;1.25;;
47715;SDS011;33476;50.984;3.538;2022-07-29T02:21:26;2.55;;;0.88;;
47715;SDS011;33476;50.984;3.538;2022-07-29T02:23:54;3.20;;;0.75;;
47715;SDS011;33476;50.984;3.538;2022-07-29T02:26:20;6.00;;;0.93;;
47715;SDS011;33476;50.984;3.538;2022-07-29T02:28:50;2.67;;;1.00;;
47715;SDS011;33476;50.984;3.538;2022-07-29T02:31:19;5.70;;;1.30;;
47715;SDS011;33476;50.984;3.538;2022-07-29T02:33:48;4.78;;;1.42;;
47715;SDS011;33476;50.984;3.538;2022-07-29T02:36:14;2.20;;;0.90;;
47715;SDS011;33476;50.984;3.538;2022-07-29T02:38:42;5.28;;;1.80;;
47715;SDS011;33476;50.984;3.538;2022-07-29T02:41:26;2.45;;;0.95;;
47715;SDS011;33476;50.984;3.538;2022-07-29T02:43:55;5.63;;;1.13;;
47715;SDS011;33476;50.984;3.538;2022-07-29T02:46:26;3.40;;;1.20;;
47715;SDS011;33476;50.984;3.538;2022-07-29T02:48:59;2.17;;;0.85;;
47715;SDS011;33476;50.984;3.538;2022-07-29T02:51:40;4.32;;;1.10;;
47715;SDS011;33476;50.984;3.538;2022-07-29T02:54:09;2.08;;;1.10;;
47715;SDS011;33476;50.984;3.538;2022-07-29T02:56:39;4.38;;;0.80;;
47715;SDS011;33476;50.984;3.538;2022-07-29T02:59:09;3.80;;;0.75;;
47715;SDS011;33476;50.984;3.538;2022-07-29T03:01:36;5.07;;;1.20;;
47715;SDS011;33476;50.984;3.538;2022-07-29T03:04:05;1.55;;;0.88;;
47715;SDS011;33476;50.984;3.538;2022-07-29T03:06:33;7.18;;;1.30;;
47715;SDS011;33476;50.984;3.538;2022-07-29T03:08:59;6.43;;;1.15;;
47715;SDS011;33476;50.984;3.538;2022-07-29T03:11:25;3.13;;;1.35;;
47715;SDS011;33476;50.984;3.538;2022-07-29T03:13:51;3.58;;;0.70;;
47715;SDS011;33476;50.984;3.538;2022-07-29T03:16:18;3.92;;;1.10;;
47715;SDS011;33476;50.984;3.538;2022-07-29T03:18:44;2.63;;;0.98;;
47715;SDS011;33476;50.984;3.538;2022-07-29T03:21:10;2.47;;;0.63;;
47715;SDS011;33476;50.984;3.538;2022-07-29T03:23:35;2.63;;;1.00;;
47715;SDS011;33476;50.984;3.538;2022-07-29T03:26:01;2.42;;;0.77;;
47715;SDS011;33476;50.984;3.538;2022-07-29T03:28:26;3.72;;;1.08;;
47715;SDS011;33476;50.984;3.538;2022-07-29T03:30:52;3.38;;;1.10;;
47715;SDS011;33476;50.984;3.538;2022-07-29T03:33:18;4.15;;;1.10;;
47715;SDS011;33476;50.984;3.538;2022-07-29T03:35:43;3.30;;;0.98;;
47715;SDS011;33476;50.984;3.538;2022-07-29T03:38:09;7.07;;;0.90;;
47715;SDS011;33476;50.984;3.538;2022-07-29T03:40:42;2.97;;;0.65;;
47715;SDS011;33476;50.984;3.538;2022-07-29T03:43:13;2.00;;;0.90;;
47715;SDS011;33476;50.984;3.538;2022-07-29T03:45:42;1.88;;;0.80;;
47715;SDS011;33476;50.984;3.538;2022-07-29T03:48:12;2.13;;;0.80;;
47715;SDS011;33476;50.984;3.538;2022-07-29T03:50:40;2.28;;;0.88;;
47715;SDS011;33476;50.984;3.538;2022-07-29T03:53:05;3.53;;;1.00;;
47715;SDS011;33476;50.984;3.538;2022-07-29T03:55:33;4.00;;;0.70;;
47715;SDS011;33476;50.984;3.538;2022-07-29T03:58:04;2.58;;;1.00;;
47715;SDS011;33476;50.984;3.538;2022-07-29T04:00:31;2.33;;;1.10;;
47715;SDS011;33476;50.984;3.538;2022-07-29T04:02:58;3.30;;;0.80;;
47715;SDS011;33476;50.984;3.538;2022-07-29T04:05:24;2.33;;;0.68;;
47715;SDS011;33476;50.984;3.538;2022-07-29T04:07:49;4.80;;;0.90;;
47715;SDS011;33476;50.984;3.538;2022-07-29T04:10:15;2.60;;;0.70;;
47715;SDS011;33476;50.984;3.538;2022-07-29T04:12:41;3.60;;;1.10;;
47715;SDS011;33476;50.984;3.538;2022-07-29T04:15:07;4.78;;;1.30;;
47715;SDS011;33476;50.984;3.538;2022-07-29T04:17:33;6.70;;;1.33;;
47715;SDS011;33476;50.984;3.538;2022-07-29T04:19:59;6.75;;;1.58;;
47715;SDS011;33476;50.984;3.538;2022-07-29T04:22:24;3.55;;;1.15;;
47715;SDS011;33476;50.984;3.538;2022-07-29T04:24:49;1.70;;;0.90;;
47715;SDS011;33476;50.984;3.538;2022-07-29T04:27:15;4.25;;;1.10;;
47715;SDS011;33476;50.984;3.538;2022-07-29T04:29:40;1.33;;;0.82;;
47715;SDS011;33476;50.984;3.538;2022-07-29T04:32:05;4.25;;;1.08;;
47715;SDS011;33476;50.984;3.538;2022-07-29T04:34:31;2.03;;;1.00;;
47715;SDS011;33476;50.984;3.538;2022-07-29T04:36:56;4.82;;;0.80;;
47715;SDS011;33476;50.984;3.538;2022-07-29T04:39:22;3.60;;;0.98;;
47715;SDS011;33476;50.984;3.538;2022-07-29T04:41:47;2.88;;;0.85;;
47715;SDS011;33476;50.984;3.538;2022-07-29T04:44:12;5.80;;;1.38;;
47715;SDS011;33476;50.984;3.538;2022-07-29T04:46:38;5.47;;;1.20;;
47715;SDS011;33476;50.984;3.538;2022-07-29T04:49:04;5.10;;;1.23;;
47715;SDS011;33476;50.984;3.538;2022-07-29T04:51:29;2.13;;;1.10;;
47715;SDS011;33476;50.984;3.538;2022-07-29T04:53:55;2.80;;;1.13;;
47715;SDS011;33476;50.984;3.538;2022-07-29T04:56:20;3.72;;;1.13;;
47715;SDS011;33476;50.984;3.538;2022-07-29T04:58:45;3.80;;;1.10;;
47715;SDS011;33476;50.984;3.538;2022-07-29T05:01:11;4.00;;;1.05;;
47715;SDS011;33476;50.984;3.538;2022-07-29T05:03:36;5.32;;;1.50;;
47715;SDS011;33476;50.984;3.538;2022-07-29T05:06:01;2.92;;;1.15;;
47715;SDS011;33476;50.984;3.538;2022-07-29T05:08:27;4.50;;;1.40;;
47715;SDS011;33476;50.984;3.538;2022-07-29T05:10:52;5.00;;;1.38;;
47715;SDS011;33476;50.984;3.538;2022-07-29T05:13:18;4.80;;;1.38;;
47715;SDS011;33476;50.984;3.538;2022-07-29T05:15:43;5.25;;;1.10;;
47715;SDS011;33476;50.984;3.538;2022-07-29T05:18:08;2.38;;;1.05;;
47715;SDS011;33476;50.984;3.538;2022-07-29T05:20:34;5.55;;;1.45;;
47715;SDS011;33476;50.984;3.538;2022-07-29T05:23:00;2.00;;;1.13;;
47715;SDS011;33476;50.984;3.538;2022-07-29T05:25:26;7.80;;;1.10;;
47715;SDS011;33476;50.984;3.538;2022-07-29T05:27:52;4.93;;;1.48;;
47715;SDS011;33476;50.984;3.538;2022-07-29T05:30:18;3.15;;;1.65;;
47715;SDS011;33476;50.984;3.538;2022-07-29T05:32:44;4.75;;;1.30;;
47715;SDS011;33476;50.984;3.538;2022-07-29T05:35:09;4.50;;;1.23;;
47715;SDS011;33476;50.984;3.538;2022-07-29T05:37:35;6.55;;;1.55;;
47715;SDS011;33476;50.984;3.538;2022-07-29T05:40:00;2.83;;;1.50;;
47715;SDS011;33476;50.984;3.538;2022-07-29T05:42:26;6.15;;;1.40;;
47715;SDS011;33476;50.984;3.538;2022-07-29T05:44:53;2.95;;;1.30;;
47715;SDS011;33476;50.984;3.538;2022-07-29T05:47:18;4.68;;;1.02;;
47715;SDS011;33476;50.984;3.538;2022-07-29T05:49:44;8.93;;;1.45;;
47715;SDS011;33476;50.984;3.538;2022-07-29T05:52:09;5.30;;;1.45;;
47715;SDS011;33476;50.984;3.538;2022-07-29T05:54:35;6.22;;;1.15;;
47715;SDS011;33476;50.984;3.538;2022-07-29T05:57:01;3.67;;;1.17;;
47715;SDS011;33476;50.984;3.538;2022-07-29T05:59:28;4.55;;;1.30;;
47715;SDS011;33476;50.984;3.538;2022-07-29T06:01:53;1.70;;;1.17;;
47715;SDS011;33476;50.984;3.538;2022-07-29T06:04:19;5.07;;;1.15;;
47715;SDS011;33476;50.984;3.538;2022-07-29T06:06:44;5.60;;;1.20;;
47715;SDS011;33476;50.984;3.538;2022-07-29T06:09:10;8.98;;;1.60;;
47715;SDS011;33476;50.984;3.538;2022-07-29T06:11:35;3.65;;;1.48;;
47715;SDS011;33476;50.984;3.538;2022-07-29T06:14:01;3.38;;;1.02;;
47715;SDS011;33476;50.984;3.538;2022-07-29T06:16:28;4.20;;;1.08;;
47715;SDS011;33476;50.984;3.538;2022-07-29T06:18:53;4.95;;;1.45;;
47715;SDS011;33476;50.984;3.538;2022-07-29T06:21:18;5.65;;;1.10;;
47715;SDS011;33476;50.984;3.538;2022-07-29T06:23:44;3.25;;;1.13;;
47715;SDS011;33476;50.984;3.538;2022-07-29T06:26:10;2.70;;;0.90;;
47715;SDS011;33476;50.984;3.538;2022-07-29T06:28:35;5.05;;;1.20;;
47715;SDS011;33476;50.984;3.538;2022-07-29T06:31:01;1.55;;;1.13;;
47715;SDS011;33476;50.984;3.538;2022-07-29T06:33:27;6.88;;;1.23;;
47715;SDS011;33476;50.984;3.538;2022-07-29T06:35:52;5.00;;;1.60;;
47715;SDS011;33476;50.984;3.538;2022-07-29T06:38:19;5.88;;;2.30;;
47715;SDS011;33476;50.984;3.538;2022-07-29T06:40:45;2.75;;;1.60;;
47715;SDS011;33476;50.984;3.538;2022-07-29T06:43:34;4.57;;;2.00;;
47715;SDS011;33476;50.984;3.538;2022-07-29T06:46:05;8.05;;;2.83;;
47715;SDS011;33476;50.984;3.538;2022-07-29T06:48:32;5.78;;;2.50;;
47715;SDS011;33476;50.984;3.538;2022-07-29T06:50:59;7.90;;;1.92;;
47715;SDS011;33476;50.984;3.538;2022-07-29T06:53:24;9.13;;;3.83;;
47715;SDS011;33476;50.984;3.538;2022-07-29T06:55:50;12.48;;;3.78;;
47715;SDS011;33476;50.984;3.538;2022-07-29T06:58:16;9.63;;;5.00;;
47715;SDS011;33476;50.984;3.538;2022-07-29T07:00:43;15.05;;;5.05;;
47715;SDS011;33476;50.984;3.538;2022-07-29T07:03:09;13.18;;;5.75;;
47715;SDS011;33476;50.984;3.538;2022-07-29T07:05:35;11.10;;;5.72;;
47715;SDS011;33476;50.984;3.538;2022-07-29T07:08:00;11.63;;;5.32;;
47715;SDS011;33476;50.984;3.538;2022-07-29T07:10:26;14.35;;;7.68;;
47715;SDS011;33476;50.984;3.538;2022-07-29T07:12:52;19.35;;;9.88;;
47715;SDS011;33476;50.984;3.538;2022-07-29T07:15:17;14.60;;;6.97;;
47715;SDS011;33476;50.984;3.538;2022-07-29T07:17:46;12.23;;;8.13;;
47715;SDS011;33476;50.984;3.538;2022-07-29T07:20:15;17.23;;;8.70;;
47715;SDS011;33476;50.984;3.538;2022-07-29T07:22:41;15.35;;;6.57;;
47715;SDS011;33476;50.984;3.538;2022-07-29T07:25:07;13.65;;;7.22;;
47715;SDS011;33476;50.984;3.538;2022-07-29T07:27:32;11.88;;;7.03;;
47715;SDS011;33476;50.984;3.538;2022-07-29T07:29:58;20.30;;;9.00;;
47715;SDS011;33476;50.984;3.538;2022-07-29T07:32:23;15.20;;;8.65;;
47715;SDS011;33476;50.984;3.538;2022-07-29T07:34:49;20.92;;;8.15;;
47715;SDS011;33476;50.984;3.538;2022-07-29T07:37:14;14.65;;;7.10;;
47715;SDS011;33476;50.984;3.538;2022-07-29T07:39:40;15.93;;;7.40;;
47715;SDS011;33476;50.984;3.538;2022-07-29T07:42:05;15.45;;;7.82;;
47715;SDS011;33476;50.984;3.538;2022-07-29T07:44:31;12.90;;;7.95;;
47715;SDS011;33476;50.984;3.538;2022-07-29T07:46:56;14.48;;;8.35;;
47715;SDS011;33476;50.984;3.538;2022-07-29T07:49:22;17.80;;;9.15;;
47715;SDS011;33476;50.984;3.538;2022-07-29T07:51:47;12.50;;;7.47;;
47715;SDS011;33476;50.984;3.538;2022-07-29T07:54:13;15.07;;;8.32;;
47715;SDS011;33476;50.984;3.538;2022-07-29T07:56:38;13.25;;;7.43;;
47715;SDS011;33476;50.984;3.538;2022-07-29T07:59:03;16.15;;;8.27;;
47715;SDS011;33476;50.984;3.538;2022-07-29T08:01:29;15.10;;;6.95;;
47715;SDS011;33476;50.984;3.538;2022-07-29T08:03:54;14.55;;;6.70;;
47715;SDS011;33476;50.984;3.538;2022-07-29T08:06:20;13.85;;;5.20;;
47715;SDS011;33476;50.984;3.538;2022-07-29T08:08:45;8.23;;;4.90;;
47715;SDS011;33476;50.984;3.538;2022-07-29T08:11:10;11.05;;;5.00;;
47715;SDS011;33476;50.984;3.538;2022-07-29T08:13:36;13.10;;;4.75;;
47715;SDS011;33476;50.984;3.538;2022-07-29T08:16:02;10.45;;;4.53;;
47715;SDS011;33476;50.984;3.538;2022-07-29T08:18:36;7.18;;;3.67;;
47715;SDS011;33476;50.984;3.538;2022-07-29T08:21:03;7.55;;;3.20;;
47715;SDS011;33476;50.984;3.538;2022-07-29T08:23:28;8.23;;;3.10;;
47715;SDS011;33476;50.984;3.538;2022-07-29T08:26:03;6.18;;;3.10;;
47715;SDS011;33476;50.984;3.538;2022-07-29T08:28:28;8.85;;;2.50;;
47715;SDS011;33476;50.984;3.538;2022-07-29T08:30:54;6.93;;;2.58;;
47715;SDS011;33476;50.984;3.538;2022-07-29T08:33:19;5.93;;;2.50;;
47715;SDS011;33476;50.984;3.538;2022-07-29T08:35:45;5.20;;;1.77;;
47715;SDS011;33476;50.984;3.538;2022-07-29T08:38:10;5.97;;;1.90;;
47715;SDS011;33476;50.984;3.538;2022-07-29T08:40:36;3.28;;;1.58;;
47715;SDS011;33476;50.984;3.538;2022-07-29T08:43:08;9.48;;;1.70;;
47715;SDS011;33476;50.984;3.538;2022-07-29T08:45:41;4.95;;;1.55;;
47715;SDS011;33476;50.984;3.538;2022-07-29T08:48:11;5.30;;;1.55;;
47715;SDS011;33476;50.984;3.538;2022-07-29T08:50:37;6.70;;;1.35;;
47715;SDS011;33476;50.984;3.538;2022-07-29T08:53:04;5.22;;;1.45;;
47715;SDS011;33476;50.984;3.538;2022-07-29T08:55:32;4.82;;;1.02;;
47715;SDS011;33476;50.984;3.538;2022-07-29T08:57:58;2.75;;;0.98;;
47715;SDS011;33476;50.984;3.538;2022-07-29T09:00:24;2.03;;;1.08;;
47715;SDS011;33476;50.984;3.538;2022-07-29T09:02:51;2.53;;;0.90;;
47715;SDS011;33476;50.984;3.538;2022-07-29T09:05:22;5.15;;;1.27;;
47715;SDS011;33476;50.984;3.538;2022-07-29T09:07:49;2.40;;;0.80;;
47715;SDS011;33476;50.984;3.538;2022-07-29T09:10:15;4.03;;;0.57;;
47715;SDS011;33476;50.984;3.538;2022-07-29T09:12:40;7.15;;;0.80;;
47715;SDS011;33476;50.984;3.538;2022-07-29T09:15:06;2.78;;;1.02;;
47715;SDS011;33476;50.984;3.538;2022-07-29T09:17:45;4.43;;;0.80;;
47715;SDS011;33476;50.984;3.538;2022-07-29T09:20:13;1.90;;;0.52;;
47715;SDS011;33476;50.984;3.538;2022-07-29T09:22:40;5.45;;;1.10;;
47715;SDS011;33476;50.984;3.538;2022-07-29T09:25:06;3.17;;;0.60;;
47715;SDS011;33476;50.984;3.538;2022-07-29T09:27:32;4.13;;;0.90;;
47715;SDS011;33476;50.984;3.538;2022-07-29T09:29:59;2.65;;;0.77;;
47715;SDS011;33476;50.984;3.538;2022-07-29T09:32:26;2.47;;;0.60;;
47715;SDS011;33476;50.984;3.538;2022-07-29T09:35:13;4.28;;;0.63;;
47715;SDS011;33476;50.984;3.538;2022-07-29T09:37:41;3.45;;;0.68;;
47715;SDS011;33476;50.984;3.538;2022-07-29T09:40:11;2.90;;;0.73;;
47715;SDS011;33476;50.984;3.538;2022-07-29T09:42:37;4.30;;;0.63;;
47715;SDS011;33476;50.984;3.538;2022-07-29T09:45:02;3.67;;;0.77;;
47715;SDS011;33476;50.984;3.538;2022-07-29T09:47:44;6.43;;;0.70;;
47715;SDS011;33476;50.984;3.538;2022-07-29T09:50:11;2.08;;;0.50;;
47715;SDS011;33476;50.984;3.538;2022-07-29T09:53:10;2.95;;;0.50;;
47715;SDS011;33476;50.984;3.538;2022-07-29T09:55:29;4.00;;;0.40;;
47715;SDS011;33476;50.984;3.538;2022-07-29T09:57:54;3.53;;;0.60;;
47715;SDS011;33476;50.984;3.538;2022-07-29T10:00:41;3.45;;;0.47;;
47715;SDS011;33476;50.984;3.538;2022-07-29T10:03:08;5.00;;;0.65;;
47715;SDS011;33476;50.984;3.538;2022-07-29T10:05:33;2.88;;;0.60;;
47715;SDS011;33476;50.984;3.538;2022-07-29T10:07:59;4.85;;;0.65;;
47715;SDS011;33476;50.984;3.538;2022-07-29T10:10:26;2.78;;;0.60;;
47715;SDS011;33476;50.984;3.538;2022-07-29T10:13:05;5.55;;;0.52;;
47715;SDS011;33476;50.984;3.538;2022-07-29T10:15:34;2.42;;;0.47;;
47715;SDS011;33476;50.984;3.538;2022-07-29T10:18:06;6.13;;;0.45;;
47715;SDS011;33476;50.984;3.538;2022-07-29T10:20:32;3.20;;;0.32;;
47715;SDS011;33476;50.984;3.538;2022-07-29T10:22:58;3.65;;;0.57;;
47715;SDS011;33476;50.984;3.538;2022-07-29T10:25:24;2.63;;;0.30;;
47715;SDS011;33476;50.984;3.538;2022-07-29T10:27:50;2.00;;;0.32;;
47715;SDS011;33476;50.984;3.538;2022-07-29T10:30:16;1.98;;;0.30;;
47715;SDS011;33476;50.984;3.538;2022-07-29T10:43:41;3.33;;;0.50;;
47715;SDS011;33476;50.984;3.538;2022-07-29T10:46:09;4.25;;;0.40;;
47715;SDS011;33476;50.984;3.538;2022-07-29T10:59:41;3.20;;;0.30;;
47715;SDS011;33476;50.984;3.538;2022-07-29T11:07:22;3.63;;;0.30;;
47715;SDS011;33476;50.984;3.538;2022-07-29T11:15:15;2.45;;;0.40;;
47715;SDS011;33476;50.984;3.538;2022-07-29T11:20:34;5.03;;;0.40;;
47715;SDS011;33476;50.984;3.538;2022-07-29T11:23:19;1.85;;;0.30;;
47715;SDS011;33476;50.984;3.538;2022-07-29T11:28:36;4.80;;;0.70;;
47715;SDS011;33476;50.984;3.538;2022-07-29T11:31:13;3.00;;;0.40;;
47715;SDS011;33476;50.984;3.538;2022-07-29T11:36:14;3.55;;;0.40;;
47715;SDS011;33476;50.984;3.538;2022-07-29T11:38:40;2.35;;;0.50;;
47715;SDS011;33476;50.984;3.538;2022-07-29T11:41:27;2.72;;;0.50;;
47715;SDS011;33476;50.984;3.538;2022-07-29T11:43:58;1.70;;;0.35;;
47715;SDS011;33476;50.984;3.538;2022-07-29T11:46:43;2.67;;;0.52;;
47715;SDS011;33476;50.984;3.538;2022-07-29T11:49:10;1.92;;;0.35;;
47715;SDS011;33476;50.984;3.538;2022-07-29T11:51:36;2.05;;;0.60;;
47715;SDS011;33476;50.984;3.538;2022-07-29T11:54:02;3.30;;;0.43;;
47715;SDS011;33476;50.984;3.538;2022-07-29T11:56:30;3.30;;;0.70;;
47715;SDS011;33476;50.984;3.538;2022-07-29T11:59:03;1.35;;;0.45;;
47715;SDS011;33476;50.984;3.538;2022-07-29T12:01:34;2.67;;;0.40;;
47715;SDS011;33476;50.984;3.538;2022-07-29T12:04:05;1.80;;;0.30;;
47715;SDS011;33476;50.984;3.538;2022-07-29T12:06:31;1.95;;;0.50;;
47715;SDS011;33476;50.984;3.538;2022-07-29T12:09:00;8.02;;;0.50;;
47715;SDS011;33476;50.984;3.538;2022-07-29T12:11:31;2.97;;;0.40;;
47715;SDS011;33476;50.984;3.538;2022-07-29T12:13:56;3.25;;;0.45;;
47715;SDS011;33476;50.984;3.538;2022-07-29T12:16:21;3.33;;;0.40;;
47715;SDS011;33476;50.984;3.538;2022-07-29T12:21:25;6.95;;;0.30;;
47715;SDS011;33476;50.984;3.538;2022-07-29T12:23:54;4.95;;;0.50;;
47715;SDS011;33476;50.984;3.538;2022-07-29T12:26:20;3.58;;;0.40;;
47715;SDS011;33476;50.984;3.538;2022-07-29T12:28:45;3.80;;;0.40;;
47715;SDS011;33476;50.984;3.538;2022-07-29T12:31:14;3.47;;;0.50;;
47715;SDS011;33476;50.984;3.538;2022-07-29T12:33:40;2.67;;;0.30;;
47715;SDS011;33476;50.984;3.538;2022-07-29T12:36:06;2.20;;;0.40;;
47715;SDS011;33476;50.984;3.538;2022-07-29T12:38:33;1.58;;;0.38;;
47715;SDS011;33476;50.984;3.538;2022-07-29T12:40:59;2.15;;;0.50;;
47715;SDS011;33476;50.984;3.538;2022-07-29T12:43:25;5.82;;;0.40;;
47715;SDS011;33476;50.984;3.538;2022-07-29T12:45:52;2.15;;;0.45;;
47715;SDS011;33476;50.984;3.538;2022-07-29T12:48:35;6.22;;;0.30;;
47715;SDS011;33476;50.984;3.538;2022-07-29T12:51:03;5.20;;;0.45;;
47715;SDS011;33476;50.984;3.538;2022-07-29T12:53:29;1.02;;;0.30;;
47715;SDS011;33476;50.984;3.538;2022-07-29T12:55:56;5.82;;;0.45;;
47715;SDS011;33476;50.984;3.538;2022-07-29T12:58:35;3.15;;;0.50;;
47715;SDS011;33476;50.984;3.538;2022-07-29T13:03:41;4.32;;;0.50;;
47715;SDS011;33476;50.984;3.538;2022-07-29T13:08:58;2.47;;;0.30;;
47715;SDS011;33476;50.984;3.538;2022-07-29T13:11:41;3.35;;;0.30;;
47715;SDS011;33476;50.984;3.538;2022-07-29T13:14:12;1.67;;;0.20;;
47715;SDS011;33476;50.984;3.538;2022-07-29T13:17:07;2.95;;;0.40;;
47715;SDS011;33476;50.984;3.538;2022-07-29T13:19:36;6.32;;;0.60;;
47715;SDS011;33476;50.984;3.538;2022-07-29T13:22:08;2.63;;;0.20;;
47715;SDS011;33476;50.984;3.538;2022-07-29T13:27:17;4.97;;;0.35;;
47715;SDS011;33476;50.984;3.538;2022-07-29T13:29:44;2.50;;;0.40;;
47715;SDS011;33476;50.984;3.538;2022-07-29T13:32:09;2.97;;;0.50;;
47715;SDS011;33476;50.984;3.538;2022-07-29T13:34:35;6.45;;;0.30;;
47715;SDS011;33476;50.984;3.538;2022-07-29T13:37:00;3.53;;;0.40;;
47715;SDS011;33476;50.984;3.538;2022-07-29T13:39:26;5.97;;;0.38;;
47715;SDS011;33476;50.984;3.538;2022-07-29T13:41:51;3.13;;;0.30;;
47715;SDS011;33476;50.984;3.538;2022-07-29T13:44:16;2.95;;;0.30;;
47715;SDS011;33476;50.984;3.538;2022-07-29T13:46:42;2.42;;;0.40;;
47715;SDS011;33476;50.984;3.538;2022-07-29T13:49:07;4.65;;;0.50;;
47715;SDS011;33476;50.984;3.538;2022-07-29T13:51:32;6.22;;;0.22;;
47715;SDS011;33476;50.984;3.538;2022-07-29T13:53:58;2.13;;;0.32;;
47715;SDS011;33476;50.984;3.538;2022-07-29T13:56:23;2.42;;;0.47;;
47715;SDS011;33476;50.984;3.538;2022-07-29T13:58:48;3.53;;;0.30;;
47715;SDS011;33476;50.984;3.538;2022-07-29T14:01:14;3.47;;;0.60;;
47715;SDS011;33476;50.984;3.538;2022-07-29T14:03:39;24.20;;;0.80;;
47715;SDS011;33476;50.984;3.538;2022-07-29T14:06:08;4.05;;;0.40;;
47715;SDS011;33476;50.984;3.538;2022-07-29T14:08:33;55.75;;;3.53;;
47715;SDS011;33476;50.984;3.538;2022-07-29T14:10:59;7.63;;;0.50;;
47715;SDS011;33476;50.984;3.538;2022-07-29T14:13:24;14.18;;;0.73;;
47715;SDS011;33476;50.984;3.538;2022-07-29T14:15:50;6.03;;;0.40;;
47715;SDS011;33476;50.984;3.538;2022-07-29T14:18:15;6.72;;;0.40;;
47715;SDS011;33476;50.984;3.538;2022-07-29T14:20:40;2.10;;;0.30;;
47715;SDS011;33476;50.984;3.538;2022-07-29T14:23:06;1.63;;;0.30;;
47715;SDS011;33476;50.984;3.538;2022-07-29T14:25:31;5.47;;;0.30;;
47715;SDS011;33476;50.984;3.538;2022-07-29T14:27:57;2.75;;;0.40;;
47715;SDS011;33476;50.984;3.538;2022-07-29T14:30:22;3.45;;;0.40;;
47715;SDS011;33476;50.984;3.538;2022-07-29T14:32:47;2.58;;;0.40;;
47715;SDS011;33476;50.984;3.538;2022-07-29T14:35:13;1.17;;;0.20;;
47715;SDS011;33476;50.984;3.538;2022-07-29T14:37:38;2.67;;;0.32;;
47715;SDS011;33476;50.984;3.538;2022-07-29T14:40:04;5.25;;;0.40;;
47715;SDS011;33476;50.984;3.538;2022-07-29T14:42:30;2.30;;;0.40;;
47715;SDS011;33476;50.984;3.538;2022-07-29T14:44:58;4.93;;;0.30;;
47715;SDS011;33476;50.984;3.538;2022-07-29T14:47:24;2.00;;;0.30;;
47715;SDS011;33476;50.984;3.538;2022-07-29T14:49:49;4.32;;;0.60;;
47715;SDS011;33476;50.984;3.538;2022-07-29T14:52:15;5.25;;;0.60;;
47715;SDS011;33476;50.984;3.538;2022-07-29T14:54:40;8.63;;;0.65;;
47715;SDS011;33476;50.984;3.538;2022-07-29T14:57:05;2.83;;;0.20;;
47715;SDS011;33476;50.984;3.538;2022-07-29T14:59:31;4.05;;;0.85;;
47715;SDS011;33476;50.984;3.538;2022-07-29T15:01:56;2.80;;;0.50;;
47715;SDS011;33476;50.984;3.538;2022-07-29T15:04:22;2.38;;;0.50;;
47715;SDS011;33476;50.984;3.538;2022-07-29T15:06:47;1.60;;;0.38;;
47715;SDS011;33476;50.984;3.538;2022-07-29T15:09:16;2.40;;;0.50;;
47715;SDS011;33476;50.984;3.538;2022-07-29T15:11:42;6.60;;;0.50;;
47715;SDS011;33476;50.984;3.538;2022-07-29T15:14:08;6.50;;;0.55;;
47715;SDS011;33476;50.984;3.538;2022-07-29T15:16:37;4.00;;;0.45;;
47715;SDS011;33476;50.984;3.538;2022-07-29T15:19:04;5.93;;;0.68;;
47715;SDS011;33476;50.984;3.538;2022-07-29T15:21:30;2.90;;;0.40;;
47715;SDS011;33476;50.984;3.538;2022-07-29T15:23:55;4.72;;;0.40;;
47715;SDS011;33476;50.984;3.538;2022-07-29T15:26:20;4.97;;;0.30;;
47715;SDS011;33476;50.984;3.538;2022-07-29T15:28:46;4.95;;;0.30;;
47715;SDS011;33476;50.984;3.538;2022-07-29T15:31:12;3.60;;;0.35;;
47715;SDS011;33476;50.984;3.538;2022-07-29T15:33:37;2.80;;;0.43;;
47715;SDS011;33476;50.984;3.538;2022-07-29T15:36:02;9.15;;;0.60;;
47715;SDS011;33476;50.984;3.538;2022-07-29T15:38:29;1.88;;;0.40;;
47715;SDS011;33476;50.984;3.538;2022-07-29T15:40:55;5.22;;;0.70;;
47715;SDS011;33476;50.984;3.538;2022-07-29T15:43:20;4.25;;;0.60;;
47715;SDS011;33476;50.984;3.538;2022-07-29T15:45:46;5.68;;;0.77;;
47715;SDS011;33476;50.984;3.538;2022-07-29T15:48:30;5.80;;;0.45;;